Аэропорт
Тбилиси (UGTB)

 UGTB / TBS
ЗЦ Ростов-на-Дону
Тбилиси* (UGGG)
Тбилиси (UGGG)
 41.66920, 44.95470  / 1624 ft

 UGTB 132300Z 1400/1424 31014KT CAVOK TX08/1411Z TN02/1403Z BECMG 1408/1410 VRB02KT BKN040 PROB40 TEMPO 1413/1419 4500 DZ BKN015 OVC020 TEMPO 1419/1424 31008KT
UGTB_AIP
Название сценария Тип сценария Flight Simulator 9 Flight Simulator X Prepar3D v2 Prepar3D v3 Prepar3D v4 xPlane
Tbilisi Freeware бесплатный
Tbilisi Freeware бесплатный

Аэропорт Тбилиси имени Шота Руставели

IATA: TBS, ICAO: UGTB

 

Международный аэропорт Тбилиси имени Шота Руставели — главный аэропорт Грузии, расположен недалеко от столицы Тбилиси с восточной стороны. В феврале 2007 года была завершена реконструкция аэропорта. Были построены новый международный терминал, паркинг, усовершенствованы перрон, рулёжные дорожки и взлётно-посадочные полосы, а также приобретено погрузочно-разгрузочное оборудование. Пропускная способность нового здания терминала — 2,8 млн пассажиров в год.

Взлетно-посадочные полосы (ВПП)
Номер Длина Поверхность ILS
13R 3000 м бетон CATI 110.3
31L CATI 108.9

 

Аэропорт грузинской столицы является крупнейшим в стране и принимает все типы воздушных судов кроме А380.

Фототеррейн Тбилиси: http://ftxdes.blogspot.ru/2016/05/project-open-scenery-tbilisi-georgia.html



2018 © VATRUS division